createdAt,value
2018-04-08T00:02:24.994Z,5.80
2018-04-08T00:04:51.556Z,5.27
2018-04-08T00:07:18.139Z,5.23
2018-04-08T00:09:44.707Z,5.80
2018-04-08T00:12:11.276Z,5.07
2018-04-08T00:14:37.856Z,5.60
2018-04-08T00:17:04.438Z,5.40
2018-04-08T00:19:31.014Z,5.50
2018-04-08T00:21:57.597Z,5.20
2018-04-08T00:24:24.159Z,5.50
2018-04-08T00:26:50.725Z,5.50
2018-04-08T00:29:17.329Z,5.80
2018-04-08T00:31:43.875Z,5.10
2018-04-08T00:34:10.445Z,5.13
2018-04-08T00:36:37.051Z,5.10
2018-04-08T00:39:03.634Z,5.27
2018-04-08T00:41:30.194Z,5.50
2018-04-08T00:43:57.117Z,5.67
2018-04-08T00:46:23.682Z,5.33
2018-04-08T00:48:50.266Z,4.70
2018-04-08T00:51:16.854Z,5.53
2018-04-08T00:53:43.418Z,5.80
2018-04-08T00:56:10.027Z,5.50
2018-04-08T00:58:36.596Z,6.23
2018-04-08T01:01:03.159Z,5.60
2018-04-08T01:03:29.731Z,5.77
2018-04-08T01:05:56.303Z,6.00
2018-04-08T01:08:22.870Z,5.60
2018-04-08T01:10:49.439Z,5.07
2018-04-08T01:13:16.026Z,5.70
2018-04-08T01:15:42.638Z,5.93
2018-04-08T01:18:09.203Z,5.10
2018-04-08T01:20:36.161Z,5.50
2018-04-08T01:23:02.730Z,5.80
2018-04-08T01:25:29.426Z,4.87
2018-04-08T01:27:56.018Z,5.50
2018-04-08T01:30:22.582Z,5.23
2018-04-08T01:32:49.153Z,5.33
2018-04-08T01:35:15.723Z,5.90
2018-04-08T01:37:42.288Z,5.93
2018-04-08T01:40:08.855Z,5.50
2018-04-08T01:42:35.435Z,6.00
2018-04-08T01:45:02.011Z,6.03
2018-04-08T01:47:28.584Z,5.77
2018-04-08T01:49:55.162Z,5.97
2018-04-08T01:52:21.734Z,6.17
2018-04-08T01:54:48.306Z,6.23
2018-04-08T01:57:14.910Z,6.13
2018-04-08T01:59:41.485Z,5.90
2018-04-08T02:02:08.058Z,6.30
2018-04-08T02:04:34.624Z,6.10
2018-04-08T02:07:01.195Z,6.50
2018-04-08T02:09:27.783Z,5.83
2018-04-08T02:11:54.338Z,6.27
2018-04-08T02:14:20.914Z,6.77
2018-04-08T02:16:47.488Z,5.93
2018-04-08T02:19:14.051Z,6.13
2018-04-08T02:21:40.635Z,5.90
2018-04-08T02:24:07.207Z,6.50
2018-04-08T02:26:33.774Z,6.30
2018-04-08T02:29:00.355Z,6.40
2018-04-08T02:31:26.960Z,6.20
2018-04-08T02:33:53.535Z,6.40
2018-04-08T02:36:20.952Z,6.50
2018-04-08T02:38:47.521Z,6.20
2018-04-08T02:41:14.092Z,6.40
2018-04-08T02:43:40.665Z,5.53
2018-04-08T02:46:07.246Z,5.90
2018-04-08T02:48:33.832Z,6.03
2018-04-08T02:51:00.407Z,6.33
2018-04-08T02:53:26.987Z,6.70
2018-04-08T02:55:53.608Z,6.40
2018-04-08T02:58:20.189Z,6.43
2018-04-08T03:00:46.759Z,6.80
2018-04-08T03:03:13.451Z,6.30
2018-04-08T03:05:40.023Z,6.43
2018-04-08T03:08:06.591Z,6.30
2018-04-08T03:10:33.170Z,6.73
2018-04-08T03:12:59.746Z,6.20
2018-04-08T03:15:26.307Z,6.87
2018-04-08T03:17:52.879Z,6.40
2018-04-08T03:20:19.451Z,6.40
2018-04-08T03:22:46.030Z,6.97
2018-04-08T03:25:12.620Z,6.97
2018-04-08T03:27:39.187Z,6.77
2018-04-08T03:30:05.763Z,6.27
2018-04-08T03:32:32.342Z,6.50
2018-04-08T03:34:58.917Z,6.80
2018-04-08T03:37:25.482Z,6.23
2018-04-08T03:39:52.059Z,6.83
2018-04-08T03:42:18.651Z,6.33
2018-04-08T03:44:45.214Z,6.17
2018-04-08T03:47:11.787Z,6.27
2018-04-08T03:49:38.354Z,5.80
2018-04-08T03:52:04.922Z,6.77
2018-04-08T03:54:31.503Z,6.13
2018-04-08T03:56:58.067Z,6.37
2018-04-08T03:59:24.679Z,7.17
2018-04-08T04:01:51.311Z,6.53
2018-04-08T04:04:17.875Z,6.10
2018-04-08T04:06:44.462Z,6.20
2018-04-08T04:09:11.039Z,6.17
2018-04-08T04:11:37.611Z,6.20
2018-04-08T04:14:04.179Z,6.20
2018-04-08T04:16:30.746Z,6.20
2018-04-08T04:19:03.291Z,6.07
2018-04-08T04:21:35.691Z,6.80
2018-04-08T04:24:08.230Z,6.10
2018-04-08T04:26:34.790Z,6.83
2018-04-08T04:29:01.366Z,5.90
2018-04-08T04:31:27.939Z,6.43
2018-04-08T04:33:54.523Z,6.50
2018-04-08T04:36:21.084Z,6.60
2018-04-08T04:38:47.647Z,6.43
2018-04-08T04:41:14.225Z,6.73
2018-04-08T04:43:40.794Z,6.20
2018-04-08T04:46:07.375Z,6.30
2018-04-08T04:48:33.984Z,6.37
2018-04-08T04:51:00.546Z,6.40
2018-04-08T04:53:27.110Z,6.20
2018-04-08T04:55:53.690Z,6.60
2018-04-08T04:58:20.282Z,6.73
2018-04-08T05:00:46.842Z,6.20
2018-04-08T05:03:13.416Z,6.80
2018-04-08T05:05:39.985Z,6.47
2018-04-08T05:08:06.550Z,6.20
2018-04-08T05:10:33.126Z,6.27
2018-04-08T05:12:59.694Z,6.20
2018-04-08T05:15:26.301Z,6.30
2018-04-08T05:17:52.847Z,6.20
2018-04-08T05:20:19.415Z,6.00
2018-04-08T05:22:46.336Z,6.10
2018-04-08T05:25:12.907Z,6.17
2018-04-08T05:27:39.472Z,6.70
2018-04-08T05:30:06.059Z,5.77
2018-04-08T05:32:32.623Z,6.83
2018-04-08T05:34:59.223Z,6.40
2018-04-08T05:37:25.772Z,6.37
2018-04-08T05:39:52.339Z,6.00
2018-04-08T05:42:18.914Z,6.47
2018-04-08T05:44:45.479Z,6.03
2018-04-08T05:47:12.067Z,6.50
2018-04-08T05:49:38.643Z,6.47
2018-04-08T05:52:05.195Z,6.60
2018-04-08T05:54:31.767Z,8.20
2018-04-08T05:56:58.336Z,7.20
2018-04-08T05:59:24.911Z,6.60
2018-04-08T06:01:51.483Z,6.60
2018-04-08T06:04:18.086Z,6.33
2018-04-08T06:06:44.700Z,6.20
2018-04-08T06:09:11.238Z,5.87
2018-04-08T06:11:37.816Z,5.63
2018-04-08T06:14:04.386Z,5.20
2018-04-08T06:16:30.954Z,5.00
2018-04-08T06:18:57.521Z,5.20
2018-04-08T06:21:24.099Z,4.70
2018-04-08T06:23:50.740Z,5.30
2018-04-08T06:26:17.284Z,5.10
2018-04-08T06:28:43.846Z,5.90
2018-04-08T06:31:10.423Z,5.93
2018-04-08T06:33:36.988Z,5.70
2018-04-08T06:36:03.589Z,6.07
2018-04-08T06:38:30.159Z,5.80
2018-04-08T06:40:56.760Z,6.57
2018-04-08T06:43:23.307Z,6.53
2018-04-08T06:45:49.878Z,6.40
2018-04-08T06:48:16.438Z,6.50
2018-04-08T06:50:43.023Z,6.27
2018-04-08T06:53:09.587Z,6.57
2018-04-08T06:55:36.178Z,6.80
2018-04-08T06:58:02.739Z,6.30
2018-04-08T07:00:29.307Z,6.43
2018-04-08T07:02:55.874Z,6.03
2018-04-08T07:05:22.447Z,6.10
2018-04-08T07:07:49.017Z,6.37
2018-04-08T07:10:15.830Z,5.90
2018-04-08T07:12:42.400Z,6.60
2018-04-08T07:15:09.079Z,6.37
2018-04-08T07:17:35.647Z,6.00
2018-04-08T07:20:02.256Z,6.00
2018-04-08T07:22:29.139Z,6.53
2018-04-08T07:24:55.720Z,6.40
2018-04-08T07:27:22.283Z,6.07
2018-04-08T07:29:48.859Z,6.13
2018-04-08T07:32:15.431Z,6.70
2018-04-08T07:34:42.008Z,7.00
2018-04-08T07:37:08.581Z,6.23
2018-04-08T07:39:35.139Z,5.87
2018-04-08T07:42:02.758Z,6.47
2018-04-08T07:44:29.339Z,5.97
2018-04-08T07:46:55.913Z,6.13
2018-04-08T07:49:22.561Z,6.33
2018-04-08T07:51:49.136Z,6.83
2018-04-08T07:54:15.718Z,6.30
2018-04-08T07:56:42.275Z,6.90
2018-04-08T07:59:08.887Z,6.57
2018-04-08T08:01:35.419Z,6.90
2018-04-08T08:04:01.990Z,6.80
2018-04-08T08:06:28.563Z,6.10
2018-04-08T08:08:55.131Z,5.57
2018-04-08T08:11:21.698Z,6.30
2018-04-08T08:13:48.295Z,6.47
2018-04-08T08:16:14.859Z,6.20
2018-04-08T08:18:41.438Z,8.50
2018-04-08T08:21:08.020Z,7.20
2018-04-08T08:23:34.628Z,6.70
2018-04-08T08:26:01.239Z,7.37
2018-04-08T08:28:27.807Z,8.90
2018-04-08T08:30:55.380Z,6.17
2018-04-08T08:33:21.942Z,6.20
2018-04-08T08:35:48.540Z,5.90
2018-04-08T08:38:15.113Z,5.87
2018-04-08T08:40:41.715Z,6.70
2018-04-08T08:43:08.296Z,6.53
2018-04-08T08:45:34.893Z,6.40
2018-04-08T08:48:01.496Z,6.57
2018-04-08T08:50:28.055Z,6.13
2018-04-08T08:52:54.619Z,6.17
2018-04-08T08:55:21.195Z,6.23
2018-04-08T08:57:47.770Z,6.10
2018-04-08T09:00:14.656Z,6.30
2018-04-08T09:02:41.222Z,6.30
2018-04-08T09:05:07.793Z,6.97
2018-04-08T09:07:34.446Z,6.10
2018-04-08T09:10:00.994Z,5.67
2018-04-08T09:12:27.575Z,6.67
2018-04-08T09:14:54.139Z,7.23
2018-04-08T09:17:20.724Z,7.33
2018-04-08T09:19:53.144Z,7.60
2018-04-08T09:22:39.326Z,7.93
2018-04-08T09:25:09.538Z,7.57
2018-04-08T09:27:36.135Z,7.30
2018-04-08T09:30:02.731Z,7.10
2018-04-08T09:32:29.343Z,7.97
2018-04-08T09:34:55.923Z,8.43
2018-04-08T09:37:22.765Z,7.53
2018-04-08T09:39:49.317Z,8.00
2018-04-08T09:42:15.918Z,7.90
2018-04-08T09:44:42.495Z,7.87
2018-04-08T09:47:09.071Z,8.07
2018-04-08T09:49:35.661Z,8.40
2018-04-08T09:52:02.332Z,8.10
2018-04-08T09:54:28.900Z,8.13
2018-04-08T09:56:55.466Z,8.07
2018-04-08T09:59:22.085Z,7.67
2018-04-08T10:01:54.416Z,7.30
2018-04-08T10:04:20.986Z,8.13
2018-04-08T10:06:47.566Z,7.00
2018-04-08T10:09:14.139Z,7.67
2018-04-08T10:11:40.822Z,7.07
2018-04-08T10:14:07.391Z,7.73
2018-04-08T10:16:33.962Z,7.80
2018-04-08T10:19:00.542Z,8.90
2018-04-08T10:21:27.119Z,8.80
2018-04-08T10:23:53.966Z,8.00
2018-04-08T10:26:20.539Z,7.90
2018-04-08T10:28:47.111Z,7.70
2018-04-08T10:31:13.688Z,8.13
2018-04-08T10:33:40.276Z,8.50
2018-04-08T10:36:07.103Z,8.20
2018-04-08T10:38:33.701Z,7.37
2018-04-08T10:41:00.256Z,7.63
2018-04-08T10:43:26.852Z,7.60
2018-04-08T10:45:53.436Z,7.50
2018-04-08T10:48:20.063Z,7.37
2018-04-08T10:50:46.631Z,8.20
2018-04-08T10:53:13.206Z,7.40
2018-04-08T10:55:39.786Z,7.40
2018-04-08T10:58:06.364Z,8.10
2018-04-08T11:00:33.197Z,7.80
2018-04-08T11:02:59.799Z,8.00
2018-04-08T11:05:26.425Z,7.83
2018-04-08T11:07:53.042Z,8.40
2018-04-08T11:10:19.599Z,8.40
2018-04-08T11:12:46.178Z,9.00
2018-04-08T11:15:12.758Z,9.00
2018-04-08T11:17:39.334Z,8.97
2018-04-08T11:20:05.911Z,7.43
2018-04-08T11:22:32.527Z,8.53
2018-04-08T11:24:59.062Z,8.00
2018-04-08T11:27:25.637Z,8.30
2018-04-08T11:29:52.213Z,9.20
2018-04-08T11:32:18.780Z,8.00
2018-04-08T11:34:45.382Z,8.80
2018-04-08T11:37:11.955Z,7.80
2018-04-08T11:39:38.526Z,7.80
2018-04-08T11:42:05.098Z,7.80
2018-04-08T11:44:31.688Z,6.70
2018-04-08T11:46:58.259Z,7.67
2018-04-08T11:49:24.831Z,7.60
2018-04-08T11:51:51.406Z,7.73
2018-04-08T11:54:17.979Z,8.00
2018-04-08T11:56:45.558Z,8.70
2018-04-08T11:59:12.149Z,8.13
2018-04-08T12:01:38.733Z,8.00
2018-04-08T12:04:05.321Z,7.80
2018-04-08T12:06:31.899Z,8.30
2018-04-08T12:08:58.479Z,8.20
2018-04-08T12:11:25.079Z,7.97
2018-04-08T12:13:51.660Z,8.20
2018-04-08T12:16:18.229Z,8.40
2018-04-08T12:18:44.795Z,7.40
2018-04-08T12:21:11.369Z,7.63
2018-04-08T12:23:39.326Z,7.50
2018-04-08T12:26:06.607Z,8.10
2018-04-08T12:28:33.171Z,6.80
2018-04-08T12:30:59.748Z,8.43
2018-04-08T12:33:26.351Z,7.97
2018-04-08T12:35:53.199Z,7.53
2018-04-08T12:38:19.774Z,7.33
2018-04-08T12:40:46.338Z,8.03
2018-04-08T12:43:12.930Z,6.80
2018-04-08T12:45:39.501Z,8.00
2018-04-08T12:48:06.078Z,5.80
2018-04-08T12:50:32.638Z,6.40
2018-04-08T12:52:59.203Z,6.70
2018-04-08T12:55:25.783Z,6.23
2018-04-08T12:57:52.353Z,6.43
2018-04-08T13:00:18.943Z,6.43
2018-04-08T13:02:45.511Z,6.83
2018-04-08T13:05:12.091Z,6.40
2018-04-08T13:07:38.671Z,6.47
2018-04-08T13:10:05.240Z,6.57
2018-04-08T13:12:31.819Z,5.97
2018-04-08T13:14:58.399Z,5.33
2018-04-08T13:17:25.000Z,5.30
2018-04-08T13:19:51.663Z,4.80
2018-04-08T13:22:18.231Z,5.90
2018-04-08T13:24:45.056Z,6.10
2018-04-08T13:27:11.623Z,5.63
2018-04-08T13:29:38.191Z,5.80
2018-04-08T13:32:04.772Z,6.43
2018-04-08T13:34:31.410Z,5.40
2018-04-08T13:36:58.014Z,5.43
2018-04-08T13:39:24.591Z,5.73
2018-04-08T13:41:51.155Z,5.00
2018-04-08T13:44:17.740Z,4.93
2018-04-08T13:46:44.298Z,5.60
2018-04-08T13:49:10.878Z,5.70
2018-04-08T13:51:37.453Z,5.97
2018-04-08T13:54:04.046Z,4.80
2018-04-08T13:56:30.595Z,5.00
2018-04-08T13:58:57.211Z,4.67
2018-04-08T14:01:23.878Z,5.13
2018-04-08T14:03:50.471Z,4.70
2018-04-08T14:06:17.034Z,5.20
2018-04-08T14:08:43.615Z,5.17
2018-04-08T14:11:10.209Z,4.93
2018-04-08T14:13:36.771Z,4.23
2018-04-08T14:16:03.335Z,4.60
2018-04-08T14:18:31.942Z,4.80
2018-04-08T14:20:58.762Z,3.90
2018-04-08T14:23:25.327Z,4.13
2018-04-08T14:25:51.919Z,3.90
2018-04-08T14:28:18.498Z,3.60
2018-04-08T14:30:45.114Z,3.70
2018-04-08T14:33:11.699Z,4.00
2018-04-08T14:35:38.295Z,3.97
2018-04-08T14:38:04.906Z,3.60
2018-04-08T14:40:31.566Z,3.70
2018-04-08T14:42:58.127Z,3.70
2018-04-08T14:45:24.778Z,2.97
2018-04-08T14:47:51.329Z,3.03
2018-04-08T14:50:17.923Z,3.13
2018-04-08T14:52:44.490Z,3.30
2018-04-08T14:55:13.906Z,3.70
2018-04-08T14:57:41.195Z,3.87
2018-04-08T15:00:07.775Z,3.77
2018-04-08T15:02:34.681Z,3.80
2018-04-08T15:05:01.277Z,3.20
2018-04-08T15:07:27.967Z,3.70
2018-04-08T15:09:54.555Z,3.90
2018-04-08T15:12:21.211Z,3.40
2018-04-08T15:14:47.759Z,3.70
2018-04-08T15:17:14.323Z,3.50
2018-04-08T15:19:40.890Z,3.53
2018-04-08T15:22:07.468Z,4.00
2018-04-08T15:24:34.036Z,3.50
2018-04-08T15:27:00.619Z,3.20
2018-04-08T15:29:27.204Z,3.63
2018-04-08T15:31:53.799Z,3.13
2018-04-08T15:34:20.370Z,3.20
2018-04-08T15:36:46.939Z,3.50
2018-04-08T15:39:13.535Z,3.23
2018-04-08T15:41:40.124Z,3.90
2018-04-08T15:44:06.675Z,3.43
2018-04-08T15:46:33.272Z,3.20
2018-04-08T15:48:59.867Z,3.87
2018-04-08T15:51:26.494Z,3.70
2018-04-08T15:53:53.160Z,3.67
2018-04-08T15:56:19.731Z,3.60
2018-04-08T15:58:46.311Z,3.07
2018-04-08T16:01:12.886Z,3.47
2018-04-08T16:03:39.464Z,3.30
2018-04-08T16:06:06.039Z,3.43
2018-04-08T16:08:32.602Z,3.30
2018-04-08T16:10:59.180Z,3.10
2018-04-08T16:13:25.769Z,4.00
2018-04-08T16:15:52.343Z,3.00
2018-04-08T16:18:18.911Z,2.90
2018-04-08T16:20:45.485Z,3.17
2018-04-08T16:23:12.089Z,2.67
2018-04-08T16:25:38.669Z,3.13
2018-04-08T16:28:05.234Z,3.70
2018-04-08T16:30:31.837Z,2.87
2018-04-08T16:32:58.403Z,2.73
2018-04-08T16:35:24.992Z,2.80
2018-04-08T16:37:51.582Z,2.57
2018-04-08T16:40:18.170Z,3.00
2018-04-08T16:42:44.734Z,2.87
2018-04-08T16:45:11.315Z,2.77
2018-04-08T16:47:37.888Z,2.97
2018-04-08T16:50:04.459Z,3.10
2018-04-08T16:52:31.050Z,3.13
2018-04-08T16:54:57.636Z,2.90
2018-04-08T16:57:24.207Z,3.50
2018-04-08T16:59:50.814Z,3.93
2018-04-08T17:02:17.402Z,5.13
2018-04-08T17:04:43.971Z,5.53
2018-04-08T17:07:10.556Z,4.77
2018-04-08T17:09:37.123Z,3.83
2018-04-08T17:12:03.691Z,3.80
2018-04-08T17:14:30.627Z,4.13
2018-04-08T17:16:57.197Z,3.40
2018-04-08T17:19:23.759Z,3.67
2018-04-08T17:21:50.364Z,2.90
2018-04-08T17:24:16.931Z,3.90
2018-04-08T17:26:43.510Z,4.03
2018-04-08T17:29:10.075Z,3.90
2018-04-08T17:31:36.639Z,3.37
2018-04-08T17:34:03.223Z,3.83
2018-04-08T17:36:29.796Z,3.50
2018-04-08T17:38:56.380Z,3.87
2018-04-08T17:41:22.948Z,3.50
2018-04-08T17:43:49.514Z,2.97
2018-04-08T17:46:16.089Z,3.20
2018-04-08T17:48:42.699Z,3.60
2018-04-08T17:51:09.259Z,4.17
2018-04-08T17:53:35.819Z,4.83
2018-04-08T17:56:02.405Z,4.43
2018-04-08T17:58:28.986Z,5.37
2018-04-08T18:00:55.566Z,6.40
2018-04-08T18:03:22.752Z,6.47
2018-04-08T18:05:49.298Z,4.30
2018-04-08T18:08:15.868Z,4.47
2018-04-08T18:10:42.438Z,3.47
2018-04-08T18:13:09.012Z,3.30
2018-04-08T18:15:35.654Z,3.40
2018-04-08T18:18:02.200Z,3.90
2018-04-08T18:20:28.811Z,3.20
2018-04-08T18:22:55.370Z,3.00
2018-04-08T18:25:21.940Z,2.90
2018-04-08T18:27:48.515Z,3.00
2018-04-08T18:30:15.079Z,3.10
2018-04-08T18:32:41.711Z,2.90
2018-04-08T18:35:08.291Z,2.90
2018-04-08T18:37:34.902Z,2.53
2018-04-08T18:40:01.446Z,3.47
2018-04-08T18:42:28.022Z,3.87
2018-04-08T18:44:54.601Z,3.97
2018-04-08T18:47:21.170Z,4.27
2018-04-08T18:49:47.768Z,3.87
2018-04-08T18:52:14.333Z,5.60
2018-04-08T18:54:40.906Z,4.60
2018-04-08T18:57:07.485Z,3.13
2018-04-08T18:59:34.064Z,3.20
2018-04-08T19:02:00.648Z,2.93
2018-04-08T19:04:27.217Z,3.57
2018-04-08T19:06:53.807Z,3.03
2018-04-08T19:09:20.390Z,3.20
2018-04-08T19:11:46.955Z,3.33
2018-04-08T19:14:13.536Z,3.80
2018-04-08T19:16:40.123Z,3.60
2018-04-08T19:19:06.691Z,3.80
2018-04-08T19:21:33.263Z,3.90
2018-04-08T19:23:59.854Z,3.63
2018-04-08T19:26:26.463Z,4.30
2018-04-08T19:28:53.049Z,4.43
2018-04-08T19:31:19.670Z,4.63
2018-04-08T19:33:46.222Z,3.67
2018-04-08T19:36:12.795Z,4.83
2018-04-08T19:38:39.375Z,4.23
2018-04-08T19:41:06.067Z,4.57
2018-04-08T19:43:32.613Z,4.07
2018-04-08T19:45:59.186Z,4.60
2018-04-08T19:48:25.759Z,4.17
2018-04-08T19:50:52.332Z,4.23
2018-04-08T19:53:18.899Z,4.63
2018-04-08T19:55:45.467Z,4.13
2018-04-08T19:58:12.109Z,4.57
2018-04-08T20:00:38.651Z,4.27
2018-04-08T20:03:05.231Z,4.77
2018-04-08T20:05:31.791Z,4.20
2018-04-08T20:07:58.360Z,4.60
2018-04-08T20:10:24.956Z,4.70
2018-04-08T20:12:51.524Z,5.53
2018-04-08T20:15:18.102Z,4.87
2018-04-08T20:17:44.663Z,5.20
2018-04-08T20:20:11.229Z,4.20
2018-04-08T20:22:37.803Z,4.40
2018-04-08T20:25:04.374Z,4.40
2018-04-08T20:27:30.985Z,4.10
2018-04-08T20:29:57.533Z,4.17
2018-04-08T20:32:24.110Z,3.90
2018-04-08T20:34:50.687Z,4.50
2018-04-08T20:37:17.286Z,4.10
2018-04-08T20:39:44.322Z,4.47
2018-04-08T20:42:11.316Z,4.37
2018-04-08T20:44:38.405Z,4.13
2018-04-08T20:47:05.700Z,4.07
2018-04-08T20:49:32.365Z,4.53
2018-04-08T20:51:58.967Z,4.00
2018-04-08T20:54:25.553Z,4.40
2018-04-08T20:56:52.116Z,3.93
2018-04-08T20:59:18.692Z,4.37
2018-04-08T21:01:45.259Z,3.80
2018-04-08T21:04:11.836Z,4.57
2018-04-08T21:06:38.411Z,4.20
2018-04-08T21:09:04.970Z,4.20
2018-04-08T21:11:31.603Z,4.33
2018-04-08T21:13:59.126Z,4.40
2018-04-08T21:16:25.732Z,4.17
2018-04-08T21:18:52.307Z,4.30
2018-04-08T21:21:18.884Z,4.87
2018-04-08T21:23:45.459Z,4.50
2018-04-08T21:26:12.026Z,4.60
2018-04-08T21:28:38.907Z,4.90
2018-04-08T21:31:05.485Z,4.10
2018-04-08T21:33:32.044Z,3.80
2018-04-08T21:35:58.623Z,4.37
2018-04-08T21:38:25.195Z,4.07
2018-04-08T21:40:51.755Z,4.17
2018-04-08T21:43:18.339Z,4.37
2018-04-08T21:45:44.911Z,4.43
2018-04-08T21:48:11.588Z,4.60
2018-04-08T21:50:38.147Z,4.23
2018-04-08T21:53:04.712Z,4.37
2018-04-08T21:55:31.278Z,4.40
2018-04-08T21:57:57.855Z,4.10
2018-04-08T22:00:24.455Z,4.53
2018-04-08T22:02:51.027Z,4.03
2018-04-08T22:05:17.618Z,4.00
2018-04-08T22:07:44.207Z,4.23
2018-04-08T22:10:10.775Z,3.90
2018-04-08T22:12:37.347Z,4.70
2018-04-08T22:15:03.912Z,4.20
2018-04-08T22:17:30.507Z,4.57
2018-04-08T22:19:57.075Z,3.97
2018-04-08T22:22:23.646Z,4.27
2018-04-08T22:24:50.321Z,4.30
2018-04-08T22:27:16.862Z,4.40
2018-04-08T22:29:43.441Z,4.27
2018-04-08T22:32:09.999Z,4.10
2018-04-08T22:34:36.839Z,4.13
2018-04-08T22:37:03.407Z,4.90
2018-04-08T22:39:29.975Z,4.43
2018-04-08T22:41:56.556Z,4.00
2018-04-08T22:44:23.127Z,4.10
2018-04-08T22:46:49.700Z,4.10
2018-04-08T22:49:16.275Z,4.33
2018-04-08T22:51:42.843Z,4.17
2018-04-08T22:54:09.415Z,4.10
2018-04-08T22:56:35.987Z,4.00
2018-04-08T22:59:02.559Z,4.50
2018-04-08T23:01:29.138Z,4.30
2018-04-08T23:03:55.714Z,4.10
2018-04-08T23:06:22.283Z,4.23
2018-04-08T23:08:48.852Z,4.27
2018-04-08T23:11:15.435Z,4.47
2018-04-08T23:13:42.007Z,4.10
2018-04-08T23:16:08.579Z,4.47
2018-04-08T23:18:35.175Z,4.40
2018-04-08T23:21:01.745Z,4.13
2018-04-08T23:23:28.355Z,4.20
2018-04-08T23:25:54.914Z,4.20
2018-04-08T23:28:21.478Z,4.60
2018-04-08T23:30:48.056Z,4.83
2018-04-08T23:33:14.623Z,4.37
2018-04-08T23:35:41.241Z,4.50
2018-04-08T23:38:07.796Z,4.90
2018-04-08T23:40:34.414Z,4.13
2018-04-08T23:43:00.990Z,4.73
2018-04-08T23:45:27.552Z,4.30
2018-04-08T23:47:54.370Z,4.60
2018-04-08T23:50:20.935Z,4.00
2018-04-08T23:52:47.504Z,4.37
2018-04-08T23:55:14.072Z,4.10
2018-04-08T23:57:40.636Z,4.33
